createdAt,value
2019-01-15T00:02:07.486Z,99843.06
2019-01-15T00:04:38.502Z,99849.98
2019-01-15T00:07:09.413Z,99847.05
2019-01-15T00:09:40.424Z,99846.31
2019-01-15T00:12:11.373Z,99851.74
2019-01-15T00:14:42.384Z,99859.95
2019-01-15T00:17:13.345Z,99855.84
2019-01-15T00:19:44.338Z,99854.30
2019-01-15T00:22:15.296Z,99865.43
2019-01-15T00:24:46.217Z,99857.44
2019-01-15T00:27:17.112Z,99872.20
2019-01-15T00:29:48.104Z,99877.42
2019-01-15T00:32:19.037Z,99874.86
2019-01-15T00:34:50.032Z,99877.05
2019-01-15T00:37:20.953Z,99887.32
2019-01-15T00:39:51.901Z,99885.14
2019-01-15T00:42:22.819Z,99884.39
2019-01-15T00:44:53.822Z,99889.08
2019-01-15T00:47:24.720Z,99890.24
2019-01-15T00:49:55.662Z,99895.03
2019-01-15T00:52:26.646Z,99893.37
2019-01-15T00:54:57.565Z,99893.33
2019-01-15T00:57:28.479Z,99904.19
2019-01-15T00:59:59.428Z,99900.78
2019-01-15T01:02:30.350Z,99903.91
2019-01-15T01:05:01.407Z,99906.03
2019-01-15T01:07:32.408Z,99903.38
2019-01-15T01:10:03.384Z,99915.93
2019-01-15T01:12:34.361Z,99909.37
2019-01-15T01:15:06.271Z,99916.03
2019-01-15T01:17:37.255Z,99916.84
2019-01-15T01:20:09.612Z,99920.16
2019-01-15T01:22:40.605Z,99919.41
2019-01-15T01:25:12.157Z,99919.41
2019-01-15T01:27:43.086Z,99923.73
2019-01-15T01:30:19.185Z,99931.89
2019-01-15T01:32:50.103Z,99929.12
2019-01-15T01:35:21.025Z,99931.09
2019-01-15T01:37:52.005Z,99928.81
2019-01-15T01:40:22.949Z,99931.64
2019-01-15T01:42:53.859Z,99944.48
2019-01-15T01:45:24.807Z,99939.58
2019-01-15T01:47:55.728Z,99936.71
2019-01-15T01:50:27.631Z,99933.67
2019-01-15T01:52:58.685Z,99943.00
2019-01-15T01:55:29.619Z,99940.70
2019-01-15T01:58:00.534Z,99942.31
2019-01-15T02:00:31.471Z,99938.09
2019-01-15T02:03:02.476Z,99933.89
2019-01-15T02:05:33.472Z,99935.49
2019-01-15T02:08:04.984Z,99938.53
2019-01-15T02:10:36.006Z,99942.90
2019-01-15T02:13:06.940Z,99942.42
2019-01-15T02:15:37.887Z,99938.05
2019-01-15T02:18:08.856Z,99940.19
2019-01-15T02:20:39.883Z,99940.83
2019-01-15T02:23:10.883Z,99946.31
2019-01-15T02:25:41.902Z,99943.17
2019-01-15T02:28:12.816Z,99933.52
2019-01-15T02:30:43.829Z,99933.05
2019-01-15T02:33:14.748Z,99943.12
2019-01-15T02:35:45.682Z,99935.23
2019-01-15T02:38:17.274Z,99947.97
2019-01-15T02:40:48.278Z,99950.84
2019-01-15T02:43:19.194Z,99939.97
2019-01-15T02:45:50.150Z,99951.70
2019-01-15T02:48:21.054Z,99953.72
2019-01-15T02:50:52.190Z,99958.47
2019-01-15T02:53:23.123Z,99952.28
2019-01-15T02:55:54.087Z,99944.56
2019-01-15T02:58:24.996Z,99942.00
2019-01-15T03:00:55.931Z,99941.52
2019-01-15T03:03:26.844Z,99934.75
2019-01-15T03:05:57.781Z,99941.30
2019-01-15T03:08:28.723Z,99943.22
2019-01-15T03:10:59.654Z,99941.68
2019-01-15T03:13:30.578Z,99945.78
2019-01-15T03:16:01.578Z,99947.91
2019-01-15T03:18:32.513Z,99945.63
2019-01-15T03:21:03.461Z,99950.31
2019-01-15T03:23:34.375Z,99942.69
2019-01-15T03:26:05.408Z,99941.58
2019-01-15T03:28:36.305Z,99948.13
2019-01-15T03:31:07.252Z,99949.94
2019-01-15T03:33:38.141Z,99955.00
2019-01-15T03:36:09.149Z,99952.71
2019-01-15T03:38:40.066Z,99953.08
2019-01-15T03:41:11.041Z,99954.90
2019-01-15T03:43:41.955Z,99958.62
2019-01-15T03:46:12.912Z,99957.13
2019-01-15T03:48:43.821Z,99962.61
2019-01-15T03:51:14.862Z,99958.94
2019-01-15T03:53:45.786Z,99961.81
2019-01-15T03:56:16.732Z,99956.58
2019-01-15T03:58:47.724Z,99967.51
2019-01-15T04:01:18.668Z,99971.40
2019-01-15T04:03:49.590Z,99980.62
2019-01-15T04:06:20.648Z,99975.19
2019-01-15T04:08:51.621Z,99981.91
2019-01-15T04:11:22.628Z,99982.45
2019-01-15T04:13:53.544Z,99981.86
2019-01-15T04:16:24.450Z,99971.41
2019-01-15T04:18:55.381Z,99975.20
2019-01-15T04:21:26.322Z,99979.57
2019-01-15T04:23:57.226Z,99975.68
2019-01-15T04:26:28.132Z,99971.78
2019-01-15T04:28:59.035Z,99984.05
2019-01-15T04:31:29.976Z,99980.73
2019-01-15T04:34:00.866Z,99980.78
2019-01-15T04:36:31.779Z,99995.27
2019-01-15T04:39:03.478Z,99993.60
2019-01-15T04:41:35.418Z,99992.27
2019-01-15T04:44:06.403Z,99994.56
2019-01-15T04:46:37.361Z,99997.59
2019-01-15T04:49:08.306Z,100005.01
2019-01-15T04:51:39.195Z,100000.81
2019-01-15T04:54:10.112Z,100000.59
2019-01-15T04:56:41.218Z,100000.02
2019-01-15T04:59:12.207Z,100012.75
2019-01-15T05:01:43.124Z,100020.00
2019-01-15T05:04:14.035Z,100014.40
2019-01-15T05:06:45.006Z,100009.44
2019-01-15T05:09:15.963Z,100012.59
2019-01-15T05:11:46.893Z,100005.83
2019-01-15T05:14:18.929Z,100007.26
2019-01-15T05:16:50.934Z,100012.11
2019-01-15T05:19:21.870Z,100013.17
2019-01-15T05:21:52.779Z,100016.55
2019-01-15T05:24:23.803Z,100022.79
2019-01-15T05:26:54.727Z,100026.95
2019-01-15T05:29:25.677Z,100025.58
2019-01-15T05:31:56.638Z,100023.61
2019-01-15T05:34:27.576Z,100023.89
2019-01-15T05:36:58.514Z,100019.41
2019-01-15T05:39:29.466Z,100031.67
2019-01-15T05:42:00.510Z,100025.88
2019-01-15T05:44:31.557Z,100024.17
2019-01-15T05:47:02.460Z,100037.51
2019-01-15T05:49:33.443Z,100032.31
2019-01-15T05:52:04.367Z,100033.43
2019-01-15T05:54:35.384Z,100030.48
2019-01-15T05:57:06.300Z,100026.33
2019-01-15T05:59:37.293Z,100026.16
2019-01-15T06:02:08.273Z,100027.77
2019-01-15T06:04:39.256Z,100025.14
2019-01-15T06:07:10.213Z,100026.24
2019-01-15T06:09:41.158Z,100019.73
2019-01-15T06:12:12.097Z,100013.17
2019-01-15T06:14:43.035Z,100017.95
2019-01-15T06:17:14.045Z,100014.75
2019-01-15T06:19:45.131Z,100021.03
2019-01-15T06:22:16.088Z,100018.95
2019-01-15T06:24:47.334Z,100018.36
2019-01-15T06:27:18.305Z,100020.52
2019-01-15T06:29:49.302Z,100027.83
2019-01-15T06:32:20.279Z,100030.76
2019-01-15T06:34:51.219Z,100028.57
2019-01-15T06:37:22.156Z,100023.31
2019-01-15T06:39:53.094Z,100027.20
2019-01-15T06:42:24.095Z,100033.76
2019-01-15T06:44:55.036Z,100029.34
2019-01-15T06:47:26.042Z,100041.77
2019-01-15T06:49:56.958Z,100036.98
2019-01-15T06:52:27.886Z,100044.98
2019-01-15T06:54:58.834Z,100042.21
2019-01-15T06:57:29.753Z,100044.29
2019-01-15T07:00:00.702Z,100047.44
2019-01-15T07:02:31.918Z,100042.69
2019-01-15T07:05:02.921Z,100034.22
2019-01-15T07:07:33.837Z,100042.31
2019-01-15T07:10:05.744Z,100040.23
2019-01-15T07:12:36.837Z,100041.40
2019-01-15T07:15:07.857Z,100034.47
2019-01-15T07:17:38.793Z,100037.61
2019-01-15T07:20:10.649Z,100045.71
2019-01-15T07:22:41.660Z,100048.64
2019-01-15T07:25:13.747Z,100041.40
2019-01-15T07:27:44.742Z,100045.77
2019-01-15T07:30:21.628Z,100048.54
2019-01-15T07:32:52.564Z,100052.70
2019-01-15T07:35:23.498Z,100034.80
2019-01-15T07:37:54.569Z,100031.55
2019-01-15T07:40:25.507Z,100028.03
2019-01-15T07:42:56.447Z,100034.70
2019-01-15T07:45:27.363Z,100031.81
2019-01-15T07:47:58.404Z,100038.38
2019-01-15T07:50:29.322Z,100049.79
2019-01-15T07:53:00.304Z,100047.39
2019-01-15T07:55:31.235Z,100059.39
2019-01-15T07:58:02.268Z,100059.18
2019-01-15T08:00:33.304Z,100055.55
2019-01-15T08:03:04.571Z,100063.55
2019-01-15T08:05:35.494Z,100048.67
2019-01-15T08:08:06.475Z,100043.28
2019-01-15T08:10:37.547Z,100048.62
2019-01-15T08:13:08.811Z,100049.42
2019-01-15T08:15:39.812Z,100052.67
2019-01-15T08:18:10.896Z,100054.49
2019-01-15T08:20:41.918Z,100056.72
2019-01-15T08:23:12.910Z,100051.88
2019-01-15T08:25:43.848Z,100048.73
2019-01-15T08:28:14.885Z,100040.89
2019-01-15T08:30:45.807Z,100044.31
2019-01-15T08:33:16.819Z,100044.09
2019-01-15T08:35:47.905Z,100047.51
2019-01-15T08:38:18.952Z,100036.80
2019-01-15T08:40:49.948Z,100025.66
2019-01-15T08:43:20.962Z,100023.22
2019-01-15T08:45:55.396Z,100026.84
2019-01-15T08:48:26.903Z,100023.46
2019-01-15T08:50:58.411Z,100024.31
2019-01-15T08:53:29.535Z,100026.82
2019-01-15T08:56:01.201Z,100026.17
2019-01-15T08:58:32.149Z,100027.52
2019-01-15T09:01:03.177Z,100019.19
2019-01-15T09:03:34.148Z,100014.77
2019-01-15T09:06:05.187Z,100014.02
2019-01-15T09:08:36.244Z,100013.75
2019-01-15T09:11:07.281Z,100005.96
2019-01-15T09:13:38.387Z,100002.34
2019-01-15T09:16:09.438Z,100005.44
2019-01-15T09:18:40.824Z,100005.70
2019-01-15T09:21:11.920Z,100006.83
2019-01-15T09:23:42.892Z,100004.00
2019-01-15T09:26:15.386Z,100005.97
2019-01-15T09:28:46.671Z,99996.32
2019-01-15T09:31:17.708Z,99995.36
2019-01-15T09:33:48.753Z,100001.06
2019-01-15T09:36:19.717Z,99994.24
2019-01-15T09:38:50.649Z,99985.02
2019-01-15T09:41:21.614Z,99984.91
2019-01-15T09:43:52.759Z,99979.58
2019-01-15T09:46:23.741Z,99975.58
2019-01-15T09:48:54.723Z,99971.84
2019-01-15T09:51:25.736Z,99971.80
2019-01-15T09:54:15.442Z,99962.20
2019-01-15T10:04:04.727Z,99964.55
2019-01-15T10:06:35.694Z,99967.11
2019-01-15T10:09:09.412Z,99962.84
2019-01-15T10:11:40.458Z,99953.41
2019-01-15T10:14:11.454Z,99956.17
2019-01-15T10:16:42.415Z,99948.77
2019-01-15T10:19:13.426Z,99947.22
2019-01-15T10:21:45.373Z,99937.89
2019-01-15T10:24:16.390Z,99938.38
2019-01-15T10:26:47.414Z,99938.53
2019-01-15T10:29:20.867Z,99932.61
2019-01-15T10:32:37.796Z,99933.25
2019-01-15T10:35:13.814Z,99932.08
2019-01-15T10:37:44.827Z,99928.28
2019-01-15T10:40:15.788Z,99923.84
2019-01-15T10:42:46.784Z,99918.63
2019-01-15T10:45:17.821Z,99921.70
2019-01-15T10:47:48.832Z,99916.16
2019-01-15T10:50:20.973Z,99919.23
2019-01-15T10:52:52.995Z,99919.53
2019-01-15T10:55:24.005Z,99925.38
2019-01-15T10:57:55.014Z,99920.08
2019-01-15T11:00:25.937Z,99919.48
2019-01-15T11:02:56.952Z,99917.45
2019-01-15T11:05:27.877Z,99917.59
2019-01-15T11:07:58.808Z,99909.87
2019-01-15T11:10:29.862Z,99918.40
2019-01-15T11:13:02.378Z,99921.83
2019-01-15T11:15:34.539Z,99918.20
2019-01-15T11:18:06.594Z,99915.05
2019-01-15T11:20:37.599Z,99913.20
2019-01-15T11:23:08.556Z,99907.01
2019-01-15T11:25:39.598Z,99910.05
2019-01-15T11:28:10.663Z,99900.59
2019-01-15T11:30:41.752Z,99918.77
2019-01-15T11:33:12.848Z,99914.39
2019-01-15T11:35:43.860Z,99911.02
2019-01-15T11:38:14.901Z,99908.60
2019-01-15T11:40:45.865Z,99916.35
2019-01-15T11:43:16.932Z,99906.64
2019-01-15T11:45:47.992Z,99910.05
2019-01-15T11:48:19.045Z,99902.30
2019-01-15T11:50:49.960Z,99895.98
2019-01-15T11:53:20.947Z,99899.51
2019-01-15T11:55:52.065Z,99901.09
2019-01-15T11:58:23.207Z,99896.98
2019-01-15T12:00:59.156Z,99901.84
2019-01-15T12:03:55.339Z,99904.64
2019-01-15T12:06:45.149Z,99905.03
2019-01-15T12:09:33.753Z,99906.90
2019-01-15T12:12:29.378Z,99903.03
2019-01-15T12:15:19.319Z,99900.50
2019-01-15T12:18:08.389Z,99905.94
2019-01-15T12:20:51.183Z,99902.20
2019-01-15T12:23:56.340Z,99903.91
2019-01-15T12:26:50.602Z,99901.73
2019-01-15T12:29:58.815Z,99901.50
2019-01-15T12:32:51.505Z,99904.41
2019-01-15T12:35:47.263Z,99902.36
2019-01-15T12:38:43.039Z,99901.89
2019-01-15T12:41:42.073Z,99904.58
2019-01-15T12:44:50.371Z,99904.34
2019-01-15T12:47:34.705Z,99906.66
2019-01-15T12:50:18.226Z,99905.56
2019-01-15T12:53:26.530Z,99900.83
2019-01-15T12:56:19.653Z,99907.39
2019-01-15T12:59:09.536Z,99907.27
2019-01-15T13:02:02.299Z,99916.02
2019-01-15T13:05:07.571Z,99911.28
2019-01-15T13:08:08.298Z,99915.41
2019-01-15T13:11:07.273Z,99909.08
2019-01-15T13:13:59.902Z,99904.34
2019-01-15T13:16:52.598Z,99915.77
2019-01-15T13:19:48.585Z,99907.13
2019-01-15T13:22:39.144Z,99913.07
2019-01-15T13:25:32.960Z,99909.05
2019-01-15T13:28:29.032Z,99908.69
2019-01-15T13:31:18.993Z,99900.44
2019-01-15T13:34:08.835Z,99894.84
2019-01-15T13:36:57.669Z,99905.28
2019-01-15T13:39:47.643Z,99908.80
2019-01-15T13:42:52.929Z,99912.94
2019-01-15T13:45:45.915Z,99911.38
2019-01-15T13:48:41.977Z,99901.28
2019-01-15T13:51:30.615Z,99909.05
2019-01-15T13:54:19.070Z,99910.89
2019-01-15T13:57:18.103Z,99902.38
2019-01-15T14:00:02.625Z,99907.36
2019-01-15T14:02:56.817Z,99916.59
2019-01-15T14:05:38.200Z,99907.10
2019-01-15T14:08:43.335Z,99902.83
2019-01-15T14:11:31.806Z,99903.55
2019-01-15T14:14:24.445Z,99904.02
2019-01-15T14:17:14.294Z,99903.27
2019-01-15T14:20:03.022Z,99911.69
2019-01-15T14:22:59.223Z,99905.03
2019-01-15T14:25:59.352Z,99914.75
2019-01-15T14:28:46.510Z,99902.61
2019-01-15T14:31:54.783Z,99905.27
2019-01-15T14:34:44.758Z,99901.39
2019-01-15T14:37:43.479Z,99912.75
2019-01-15T14:40:37.350Z,99908.74
2019-01-15T14:43:27.195Z,99906.65
2019-01-15T14:46:15.608Z,99903.47
2019-01-15T14:49:04.468Z,99901.88
2019-01-15T14:51:54.311Z,99898.48
2019-01-15T14:54:44.264Z,99894.47
2019-01-15T14:57:37.240Z,99894.84
2019-01-15T15:00:26.897Z,99890.47
2019-01-15T15:03:22.382Z,99895.44
2019-01-15T15:06:08.252Z,99889.39
2019-01-15T15:08:59.485Z,99885.27
2019-01-15T15:11:47.927Z,99885.77
2019-01-15T15:14:31.834Z,99876.56
2019-01-15T15:17:20.380Z,99872.80
2019-01-15T15:20:10.321Z,99874.13
2019-01-15T15:22:52.071Z,99862.84
2019-01-15T15:25:45.081Z,99860.30
2019-01-15T15:28:43.847Z,99853.86
2019-01-15T15:31:32.921Z,99860.19
2019-01-15T15:34:26.199Z,99849.27
2019-01-15T15:37:14.747Z,99858.02
2019-01-15T15:40:04.749Z,99852.92
2019-01-15T15:42:57.679Z,99855.23
2019-01-15T15:45:50.495Z,99852.32
2019-01-15T15:48:46.159Z,99845.03
2019-01-15T15:51:31.892Z,99851.48
2019-01-15T15:54:28.001Z,99838.36
2019-01-15T15:57:17.847Z,99838.36
2019-01-15T16:00:06.533Z,99822.57
2019-01-15T16:03:05.638Z,99813.34
2019-01-15T16:06:07.695Z,99805.08
2019-01-15T16:09:09.923Z,99791.71
2019-01-15T16:11:58.830Z,99792.81
2019-01-15T16:14:45.706Z,99784.30
2019-01-15T16:17:35.540Z,99780.53
2019-01-15T16:20:29.312Z,99775.80
2019-01-15T16:23:28.399Z,99767.53
2019-01-15T16:26:17.726Z,99773.48
2019-01-15T16:29:23.003Z,99764.48
2019-01-15T16:32:11.747Z,99765.70
2019-01-15T16:35:07.764Z,99761.94
2019-01-15T16:37:56.285Z,99755.50
2019-01-15T16:40:53.210Z,99745.17
2019-01-15T16:43:39.912Z,99746.52
2019-01-15T16:46:26.643Z,99745.06
2019-01-15T16:49:20.448Z,99735.71
2019-01-15T16:52:09.231Z,99732.80
2019-01-15T16:55:05.306Z,99731.33
2019-01-15T16:58:01.073Z,99723.06
2019-01-15T17:01:08.896Z,99717.10
2019-01-15T17:03:52.902Z,99709.94
2019-01-15T17:06:54.920Z,99713.45
2019-01-15T17:09:43.678Z,99717.47
2019-01-15T17:12:31.502Z,99719.41
2019-01-15T17:15:36.468Z,99707.50
2019-01-15T17:18:29.352Z,99711.41
2019-01-15T17:21:13.721Z,99718.45
2019-01-15T17:24:02.546Z,99697.69
2019-01-15T17:27:07.843Z,99694.66
2019-01-15T17:30:03.878Z,99695.02
2019-01-15T17:32:53.511Z,99683.36
2019-01-15T17:35:44.958Z,99679.35
2019-01-15T17:38:37.874Z,99684.57
2019-01-15T17:41:26.739Z,99684.70
2019-01-15T17:44:05.577Z,99659.44
2019-01-15T17:47:04.891Z,99669.62
2019-01-15T17:49:53.845Z,99655.65
2019-01-15T17:52:52.013Z,99661.72
2019-01-15T17:55:57.018Z,99656.86
2019-01-15T17:58:51.451Z,99650.91
2019-01-15T18:01:33.706Z,99655.76
2019-01-15T18:04:24.462Z,99651.37
2019-01-15T18:07:13.225Z,99647.85
2019-01-15T18:10:01.671Z,99639.34
2019-01-15T18:13:03.565Z,99635.83
2019-01-15T18:15:50.089Z,99637.52
2019-01-15T18:18:28.606Z,99623.80
2019-01-15T18:21:17.040Z,99613.21
2019-01-15T18:24:06.895Z,99613.31
2019-01-15T18:27:02.772Z,99608.33
2019-01-15T18:29:51.213Z,99604.42
2019-01-15T18:32:46.851Z,99598.83
2019-01-15T18:35:39.480Z,99589.34
2019-01-15T18:38:35.452Z,99605.25
2019-01-15T18:41:25.280Z,99587.97
2019-01-15T18:44:22.063Z,99590.39
2019-01-15T18:47:24.016Z,99583.45
2019-01-15T18:50:16.688Z,99587.20
2019-01-15T18:53:10.304Z,99577.58
2019-01-15T18:56:03.236Z,99582.31
2019-01-15T18:58:51.932Z,99584.11
2019-01-15T19:01:40.700Z,99576.94
2019-01-15T19:04:25.653Z,99581.66
2019-01-15T19:07:16.675Z,99583.09
2019-01-15T19:10:18.699Z,99584.92
2019-01-15T19:13:06.770Z,99583.03
2019-01-15T19:16:06.481Z,99578.62
2019-01-15T19:18:55.868Z,99581.17
2019-01-15T19:21:44.388Z,99578.95
2019-01-15T19:24:27.511Z,99578.68
2019-01-15T19:27:13.822Z,99583.41
2019-01-15T19:30:08.088Z,99577.08
2019-01-15T19:33:11.408Z,99573.42
2019-01-15T19:36:00.047Z,99576.33
2019-01-15T19:38:53.016Z,99578.96
2019-01-15T19:41:49.042Z,99582.09
2019-01-15T19:44:35.539Z,99590.48
2019-01-15T19:47:24.126Z,99589.36
2019-01-15T19:50:23.093Z,99593.47
2019-01-15T19:53:13.049Z,99597.84
2019-01-15T19:56:09.150Z,99582.85
2019-01-15T19:59:08.373Z,99582.72
2019-01-15T20:01:56.822Z,99578.66
2019-01-15T20:04:49.995Z,99569.51
2019-01-15T20:07:52.191Z,99562.90
2019-01-15T20:10:42.445Z,99565.66
2019-01-15T20:13:32.381Z,99565.53
2019-01-15T20:16:22.253Z,99564.14
2019-01-15T20:19:27.225Z,99558.65
2019-01-15T20:22:10.196Z,99570.78
2019-01-15T20:25:00.030Z,99568.91
2019-01-15T20:27:59.093Z,99575.41
2019-01-15T20:31:00.956Z,99575.35
2019-01-15T20:33:49.362Z,99575.08
2019-01-15T20:36:32.676Z,99589.05
2019-01-15T20:39:31.653Z,99585.44
2019-01-15T20:42:24.587Z,99577.97
2019-01-15T20:45:10.943Z,99589.27
2019-01-15T20:47:52.763Z,99585.59
2019-01-15T20:51:03.648Z,99598.80
2019-01-15T20:53:52.472Z,99601.99
2019-01-15T20:56:41.167Z,99601.30
2019-01-15T20:59:34.717Z,99597.64
2019-01-15T21:02:17.148Z,99597.79
2019-01-15T21:05:16.135Z,99596.16
2019-01-15T21:08:06.076Z,99607.88
2019-01-15T21:11:02.312Z,99615.22
2019-01-15T21:13:56.462Z,99606.27
2019-01-15T21:16:44.923Z,99613.61
2019-01-15T21:19:37.667Z,99611.19
2019-01-15T21:22:26.169Z,99619.92
2019-01-15T21:25:22.145Z,99611.08
2019-01-15T21:28:20.873Z,99616.81
2019-01-15T21:31:09.577Z,99619.00
2019-01-15T21:34:03.569Z,99618.36
2019-01-15T21:37:05.493Z,99610.70
2019-01-15T21:39:54.297Z,99608.72
2019-01-15T21:42:42.867Z,99615.64
2019-01-15T21:45:35.672Z,99614.36
2019-01-15T21:48:24.576Z,99618.44
2019-01-15T21:51:13.290Z,99617.50
2019-01-15T21:54:12.115Z,99623.08
2019-01-15T21:57:06.001Z,99621.33
2019-01-15T21:59:54.914Z,99618.05
2019-01-15T22:02:51.064Z,99615.92
2019-01-15T22:05:36.356Z,99613.72
2019-01-15T22:08:26.846Z,99621.49
2019-01-15T22:11:28.820Z,99619.50
2019-01-15T22:14:17.652Z,99629.27
2019-01-15T22:17:07.627Z,99629.76
2019-01-15T22:20:00.612Z,99640.36
2019-01-15T22:22:56.755Z,99633.84
2019-01-15T22:25:45.506Z,99634.69
2019-01-15T22:28:44.394Z,99641.91
2019-01-15T22:31:39.373Z,99635.69
2019-01-15T22:34:29.383Z,99640.41
2019-01-15T22:37:22.272Z,99647.34
2019-01-15T22:40:13.019Z,99656.45
2019-01-15T22:43:02.645Z,99643.55
2019-01-15T22:45:51.321Z,99655.36
2019-01-15T22:48:41.231Z,99658.07
2019-01-15T22:51:42.974Z,99643.63
2019-01-15T22:54:26.332Z,99648.66
2019-01-15T22:57:16.238Z,99667.83
2019-01-15T23:00:05.248Z,99655.73
2019-01-15T23:02:54.840Z,99666.88
2019-01-15T23:05:39.688Z,99668.78
2019-01-15T23:08:28.177Z,99673.31
2019-01-15T23:11:17.008Z,99673.02
2019-01-15T23:14:05.731Z,99674.70
2019-01-15T23:17:04.687Z,99672.31
2019-01-15T23:20:06.433Z,99673.51
2019-01-15T23:23:08.466Z,99669.83
2019-01-15T23:25:58.686Z,99683.13
2019-01-15T23:28:48.615Z,99669.38
2019-01-15T23:31:27.574Z,99670.72
2019-01-15T23:34:17.513Z,99672.91
2019-01-15T23:37:01.326Z,99672.86
2019-01-15T23:39:55.218Z,99666.64
2019-01-15T23:42:49.163Z,99685.47
2019-01-15T23:45:44.936Z,99684.52
2019-01-15T23:48:33.546Z,99696.37
2019-01-15T23:51:22.304Z,99698.41
2019-01-15T23:54:30.774Z,99692.83
2019-01-15T23:57:19.483Z,99711.71
